createdAt,value
2023-03-24T00:01:07.633Z,30.60
2023-03-24T00:03:34.706Z,35.78
2023-03-24T00:06:04.011Z,29.45
2023-03-24T00:08:36.436Z,34.58
2023-03-24T00:11:06.643Z,35.35
2023-03-24T00:13:38.386Z,35.10
2023-03-24T00:16:06.894Z,34.75
2023-03-24T00:18:34.200Z,34.42
2023-03-24T00:21:01.213Z,35.13
2023-03-24T00:23:32.661Z,35.80
2023-03-24T00:26:07.545Z,36.78
2023-03-24T00:28:37.044Z,35.05
2023-03-24T00:31:05.927Z,34.25
2023-03-24T00:33:35.107Z,31.73
2023-03-24T00:36:07.487Z,33.97
2023-03-24T00:38:35.024Z,37.47
2023-03-24T00:41:02.398Z,38.50
2023-03-24T00:43:29.859Z,38.50
2023-03-24T00:46:07.342Z,39.33
2023-03-24T00:48:35.262Z,35.13
2023-03-24T00:51:03.183Z,34.42
2023-03-24T00:53:30.619Z,34.42
2023-03-24T00:55:58.786Z,34.25
2023-03-24T00:58:26.332Z,33.60
2023-03-24T01:00:56.350Z,41.08
2023-03-24T01:03:27.662Z,36.45
2023-03-24T01:06:03.165Z,39.45
2023-03-24T01:08:31.713Z,38.78
2023-03-24T01:11:01.260Z,37.28
2023-03-24T01:13:29.538Z,37.00
2023-03-24T01:15:57.653Z,37.97
2023-03-24T01:18:24.642Z,35.75
2023-03-24T01:20:51.829Z,33.10
2023-03-24T01:23:22.503Z,33.50
2023-03-24T01:25:51.149Z,30.80
2023-03-24T01:28:24.965Z,29.23
2023-03-24T01:30:53.365Z,26.65
2023-03-24T01:33:20.998Z,25.95
2023-03-24T01:35:48.138Z,25.20
2023-03-24T01:38:15.477Z,27.05
2023-03-24T01:40:45.275Z,25.38
2023-03-24T01:43:27.304Z,26.00
2023-03-24T01:46:14.527Z,23.55
2023-03-24T01:48:47.007Z,23.52
2023-03-24T01:51:25.543Z,23.02
2023-03-24T01:54:07.381Z,23.65
2023-03-24T01:56:39.985Z,22.50
2023-03-24T01:59:10.800Z,23.27
2023-03-24T02:02:03.153Z,23.58
2023-03-24T02:04:50.522Z,22.83
2023-03-24T02:07:41.156Z,23.42
2023-03-24T02:10:13.552Z,23.80
2023-03-24T02:12:41.723Z,25.77
2023-03-24T02:15:10.322Z,26.80
2023-03-24T02:17:54.763Z,29.27
2023-03-24T02:21:04.551Z,31.15
2023-03-24T02:23:54.248Z,30.20
2023-03-24T02:26:47.786Z,27.20
2023-03-24T02:29:31.560Z,27.25
2023-03-24T02:32:16.425Z,27.27
2023-03-24T02:35:05.010Z,28.40
2023-03-24T02:37:53.415Z,25.02
2023-03-24T02:40:37.871Z,26.65
2023-03-24T02:43:17.206Z,26.00
2023-03-24T02:46:03.053Z,25.25
2023-03-24T02:48:50.975Z,24.52
2023-03-24T02:51:27.599Z,24.40
2023-03-24T02:54:26.011Z,22.45
2023-03-24T02:57:09.785Z,22.27
2023-03-24T03:00:18.372Z,21.92
2023-03-24T03:03:28.888Z,20.23
2023-03-24T03:06:07.098Z,19.00
2023-03-24T03:08:36.235Z,18.73
2023-03-24T03:11:06.040Z,19.48
2023-03-24T03:13:43.587Z,17.42
2023-03-24T03:16:17.471Z,17.60
2023-03-24T03:18:51.872Z,16.70
2023-03-24T03:21:23.777Z,16.25
2023-03-24T03:24:11.330Z,16.35
2023-03-24T03:26:39.146Z,16.50
2023-03-24T03:29:14.076Z,16.98
2023-03-24T03:31:51.774Z,18.10
2023-03-24T03:34:34.587Z,16.67
2023-03-24T03:37:24.138Z,16.45
2023-03-24T03:39:56.392Z,15.65
2023-03-24T03:42:24.003Z,16.55
2023-03-24T03:44:51.718Z,14.88
2023-03-24T03:47:21.306Z,15.93
2023-03-24T03:49:49.227Z,15.27
2023-03-24T03:52:16.658Z,15.35
2023-03-24T03:54:45.391Z,14.90
2023-03-24T03:57:14.101Z,14.35
2023-03-24T04:00:15.803Z,14.70
2023-03-24T04:03:00.312Z,14.77
2023-03-24T04:05:48.611Z,14.10
2023-03-24T04:08:40.040Z,15.43
2023-03-24T04:11:31.227Z,14.88
2023-03-24T04:14:37.911Z,14.60
2023-03-24T04:17:40.236Z,14.50
2023-03-24T04:20:19.592Z,14.23
2023-03-24T04:23:05.556Z,14.18
2023-03-24T04:26:14.847Z,12.65
2023-03-24T04:29:03.343Z,13.13
2023-03-24T04:31:40.159Z,12.85
2023-03-24T04:34:30.819Z,12.52
2023-03-24T04:37:12.553Z,12.48
2023-03-24T04:39:50.503Z,12.20
2023-03-24T04:42:25.754Z,12.73
2023-03-24T04:44:53.162Z,11.63
2023-03-24T04:47:53.769Z,12.10
2023-03-24T04:50:39.809Z,12.10
2023-03-24T04:53:11.928Z,12.40
2023-03-24T04:55:54.397Z,13.10
2023-03-24T04:58:39.907Z,11.93
2023-03-24T05:01:09.198Z,12.73
2023-03-24T05:03:38.165Z,13.55
2023-03-24T05:06:08.468Z,13.60
2023-03-24T05:08:35.466Z,13.88
2023-03-24T05:11:02.551Z,14.07
2023-03-24T05:13:31.417Z,13.82
2023-03-24T05:16:01.488Z,14.63
2023-03-24T05:18:48.648Z,15.00
2023-03-24T05:21:16.593Z,15.75
2023-03-24T05:23:44.695Z,15.07
2023-03-24T05:26:11.470Z,14.43
2023-03-24T05:28:55.259Z,14.75
2023-03-24T05:31:22.785Z,12.88
2023-03-24T05:33:56.748Z,13.25
2023-03-24T05:36:25.103Z,13.50
2023-03-24T05:38:56.946Z,13.07
2023-03-24T05:41:30.879Z,11.57
2023-03-24T05:43:57.613Z,12.70
2023-03-24T05:46:26.433Z,12.43
2023-03-24T05:48:53.698Z,12.68
2023-03-24T05:51:21.580Z,10.75
2023-03-24T05:53:57.746Z,12.10
2023-03-24T05:56:37.156Z,11.32
2023-03-24T05:59:17.979Z,11.40
2023-03-24T06:01:58.672Z,11.50
2023-03-24T06:04:39.746Z,10.57
2023-03-24T06:07:14.438Z,10.40
2023-03-24T06:09:47.266Z,10.98
2023-03-24T06:12:16.456Z,11.02
2023-03-24T06:15:09.874Z,10.23
2023-03-24T06:17:37.539Z,10.13
2023-03-24T06:20:18.774Z,10.27
2023-03-24T06:23:15.533Z,9.52
2023-03-24T06:26:15.194Z,9.93
2023-03-24T06:31:30.895Z,9.60
2023-03-24T06:33:57.771Z,10.02
2023-03-24T06:36:25.861Z,9.93
2023-03-24T06:38:53.916Z,9.63
2023-03-24T06:41:21.902Z,8.82
2023-03-24T06:43:57.050Z,9.75
2023-03-24T06:46:25.729Z,10.27
2023-03-24T06:48:52.580Z,10.48
2023-03-24T06:51:19.980Z,10.00
2023-03-24T06:53:47.021Z,10.60
2023-03-24T06:56:19.925Z,9.95
2023-03-24T06:58:52.450Z,9.05
2023-03-24T07:01:35.374Z,11.40
2023-03-24T07:04:16.035Z,10.98
2023-03-24T07:07:05.580Z,10.90
2023-03-24T07:09:42.047Z,10.27
2023-03-24T07:12:09.091Z,10.40
2023-03-24T07:14:37.510Z,9.85
2023-03-24T07:17:06.421Z,10.45
2023-03-24T07:19:45.959Z,9.95
2023-03-24T07:22:38.818Z,9.73
2023-03-24T07:25:41.760Z,9.80
2023-03-24T07:28:17.082Z,9.80
2023-03-24T07:30:44.349Z,9.25
2023-03-24T07:33:12.807Z,8.88
2023-03-24T07:35:44.061Z,9.80
2023-03-24T07:38:11.322Z,9.73
2023-03-24T07:40:38.678Z,9.13
2023-03-24T07:43:09.337Z,9.80
2023-03-24T07:46:09.621Z,9.10
2023-03-24T07:48:37.679Z,9.73
2023-03-24T07:51:04.586Z,9.20
2023-03-24T07:54:03.943Z,9.40
2023-03-24T07:56:36.218Z,9.60
2023-03-24T07:59:03.850Z,9.05
2023-03-24T08:01:54.850Z,9.43
2023-03-24T08:04:43.085Z,8.48
2023-03-24T08:07:28.690Z,8.35
2023-03-24T08:09:57.889Z,8.85
2023-03-24T08:12:24.705Z,9.10
2023-03-24T08:14:52.286Z,8.55
2023-03-24T08:17:19.061Z,8.70
2023-03-24T08:19:58.860Z,9.27
2023-03-24T08:22:28.077Z,9.70
2023-03-24T08:24:54.840Z,9.70
2023-03-24T08:27:21.640Z,9.20
2023-03-24T08:29:48.429Z,9.52
2023-03-24T08:32:15.395Z,9.05
2023-03-24T08:34:42.237Z,8.75
2023-03-24T08:37:09.121Z,9.32
2023-03-24T08:39:36.136Z,9.23
2023-03-24T08:42:03.470Z,8.25
2023-03-24T08:44:32.802Z,9.32
2023-03-24T08:47:01.668Z,8.32
2023-03-24T08:49:28.800Z,8.65
2023-03-24T08:51:57.136Z,8.10
2023-03-24T08:54:26.181Z,8.63
2023-03-24T08:56:55.754Z,8.98
2023-03-24T08:59:22.659Z,8.63
2023-03-24T09:01:53.119Z,8.13
2023-03-24T09:04:19.941Z,8.40
2023-03-24T09:06:46.749Z,8.13
2023-03-24T09:09:13.421Z,7.90
2023-03-24T09:11:40.251Z,8.75
2023-03-24T09:14:07.050Z,8.90
2023-03-24T09:16:34.749Z,8.95
2023-03-24T09:19:01.878Z,8.80
2023-03-24T09:21:28.776Z,9.20
2023-03-24T09:23:55.780Z,9.65
2023-03-24T09:26:23.260Z,9.45
2023-03-24T09:28:51.186Z,9.20
2023-03-24T09:31:18.054Z,9.45
2023-03-24T09:33:44.830Z,9.88
2023-03-24T09:36:11.994Z,10.05
2023-03-24T09:38:38.833Z,8.95
2023-03-24T09:41:14.771Z,9.32
2023-03-24T09:43:45.390Z,9.70
2023-03-24T09:46:35.913Z,9.80
2023-03-24T09:49:04.243Z,9.88
2023-03-24T09:51:39.757Z,9.57
2023-03-24T09:54:23.134Z,9.35
2023-03-24T09:56:51.943Z,9.55
2023-03-24T09:59:20.290Z,9.02
2023-03-24T10:01:47.843Z,8.52
2023-03-24T10:04:21.110Z,8.93
2023-03-24T10:06:53.373Z,8.82
2023-03-24T10:09:32.974Z,9.70
2023-03-24T10:12:17.695Z,8.63
2023-03-24T10:15:24.327Z,7.45
2023-03-24T10:18:07.346Z,9.07
2023-03-24T10:21:22.693Z,8.45
2023-03-24T10:24:02.572Z,8.55
2023-03-24T10:26:54.322Z,8.05
2023-03-24T10:29:23.687Z,9.02
2023-03-24T10:32:02.504Z,8.05
2023-03-24T10:34:33.126Z,8.82
2023-03-24T10:37:07.285Z,9.07
2023-03-24T10:39:43.968Z,8.93
2023-03-24T10:42:21.927Z,8.73
2023-03-24T10:44:50.499Z,9.10
2023-03-24T10:47:22.669Z,9.00
2023-03-24T10:50:00.796Z,9.55
2023-03-24T10:52:46.546Z,9.82
2023-03-24T10:55:19.413Z,9.05
2023-03-24T11:00:19.421Z,10.02
2023-03-24T11:03:05.350Z,10.73
2023-03-24T11:05:41.161Z,9.73
2023-03-24T11:08:28.786Z,10.10
2023-03-24T11:10:56.304Z,9.63
2023-03-24T11:13:33.183Z,9.93
2023-03-24T11:16:06.318Z,10.38
2023-03-24T11:18:33.407Z,10.30
2023-03-24T11:21:05.504Z,9.48
2023-03-24T11:23:45.225Z,9.77
2023-03-24T11:26:30.127Z,10.63
2023-03-24T11:29:01.027Z,9.60
2023-03-24T11:31:30.963Z,10.18
2023-03-24T11:34:14.827Z,9.32
2023-03-24T11:36:48.608Z,10.38
2023-03-24T11:39:19.835Z,9.60
2023-03-24T11:42:16.578Z,10.05
2023-03-24T11:44:53.582Z,9.75
2023-03-24T11:47:36.631Z,9.82
2023-03-24T11:50:19.279Z,10.90
2023-03-24T11:53:16.226Z,10.90
2023-03-24T11:56:21.701Z,11.77
2023-03-24T11:59:03.934Z,10.18
2023-03-24T12:02:02.529Z,10.05
2023-03-24T12:04:56.806Z,11.00
2023-03-24T12:07:25.171Z,10.80
2023-03-24T12:10:10.806Z,11.25
2023-03-24T12:12:52.767Z,10.95
2023-03-24T12:15:57.412Z,10.60
2023-03-24T12:18:48.084Z,10.57
2023-03-24T12:21:33.929Z,10.30
2023-03-24T12:24:10.463Z,9.50
2023-03-24T12:26:39.222Z,9.57
2023-03-24T12:29:21.520Z,9.20
2023-03-24T12:32:16.230Z,9.17
2023-03-24T12:34:56.163Z,9.15
2023-03-24T12:37:54.539Z,9.07
2023-03-24T12:40:33.032Z,9.43
2023-03-24T12:43:31.585Z,8.60
2023-03-24T12:46:11.236Z,9.68
2023-03-24T12:48:40.846Z,9.70
2023-03-24T12:51:28.201Z,9.02
2023-03-24T12:54:36.700Z,8.48
2023-03-24T12:57:11.547Z,10.20
2023-03-24T12:59:50.448Z,9.02
2023-03-24T13:02:45.817Z,9.27
2023-03-24T13:05:21.220Z,8.80
2023-03-24T13:07:57.511Z,10.00
2023-03-24T13:10:28.260Z,9.13
2023-03-24T13:13:29.656Z,9.23
2023-03-24T13:16:09.400Z,9.75
2023-03-24T13:19:00.021Z,8.45
2023-03-24T13:21:29.731Z,9.45
2023-03-24T13:24:02.277Z,9.27
2023-03-24T13:26:44.171Z,9.45
2023-03-24T13:29:54.402Z,10.98
2023-03-24T13:32:21.673Z,9.70
2023-03-24T13:34:56.917Z,9.88
2023-03-24T13:37:35.176Z,9.55
2023-03-24T13:40:11.118Z,8.90
2023-03-24T13:42:48.143Z,9.63
2023-03-24T13:45:35.109Z,10.25
2023-03-24T13:48:11.041Z,8.98
2023-03-24T13:50:41.032Z,9.45
2023-03-24T13:53:15.715Z,9.05
2023-03-24T13:55:51.299Z,9.82
2023-03-24T13:58:28.394Z,9.23
2023-03-24T14:01:11.111Z,9.48
2023-03-24T14:03:43.368Z,9.20
2023-03-24T14:06:11.796Z,8.80
2023-03-24T14:08:53.859Z,9.75
2023-03-24T14:11:35.693Z,9.75
2023-03-24T14:14:19.335Z,9.30
2023-03-24T14:17:09.066Z,8.50
2023-03-24T14:19:40.519Z,9.75
2023-03-24T14:22:14.332Z,10.35
2023-03-24T14:24:46.551Z,9.55
2023-03-24T14:27:29.281Z,9.57
2023-03-24T14:30:26.533Z,10.88
2023-03-24T14:32:56.767Z,10.07
2023-03-24T14:35:44.865Z,9.05
2023-03-24T14:38:27.165Z,9.23
2023-03-24T14:40:58.749Z,9.45
2023-03-24T14:44:00.834Z,9.02
2023-03-24T14:46:48.095Z,10.02
2023-03-24T14:49:29.198Z,10.48
2023-03-24T14:52:44.358Z,10.85
2023-03-24T14:55:16.639Z,11.40
2023-03-24T14:57:51.857Z,9.85
2023-03-24T15:00:21.727Z,10.10
2023-03-24T15:03:01.128Z,10.00
2023-03-24T15:05:30.027Z,10.05
2023-03-24T15:08:03.540Z,10.02
2023-03-24T15:10:48.350Z,10.35
2023-03-24T15:13:34.902Z,11.20
2023-03-24T15:16:24.589Z,11.68
2023-03-24T15:19:02.094Z,10.20
2023-03-24T15:21:38.019Z,10.85
2023-03-24T15:24:22.905Z,10.70
2023-03-24T15:26:52.929Z,11.63
2023-03-24T15:29:19.717Z,10.70
2023-03-24T15:31:46.901Z,11.02
2023-03-24T15:34:31.558Z,11.82
2023-03-24T15:37:04.282Z,11.93
2023-03-24T15:39:41.073Z,12.05
2023-03-24T15:42:14.704Z,13.70
2023-03-24T15:44:42.180Z,14.40
2023-03-24T15:47:24.270Z,13.15
2023-03-24T15:49:54.494Z,13.13
2023-03-24T15:52:28.770Z,13.23
2023-03-24T15:54:59.482Z,12.32
2023-03-24T15:57:27.072Z,11.68
2023-03-24T15:59:59.466Z,11.63
2023-03-24T16:02:42.451Z,10.60
2023-03-24T16:05:19.698Z,10.02
2023-03-24T16:07:55.975Z,10.50
2023-03-24T16:10:32.670Z,11.15
2023-03-24T16:13:15.931Z,10.95
2023-03-24T16:15:48.562Z,11.48
2023-03-24T16:18:20.706Z,10.18
2023-03-24T16:20:47.929Z,11.37
2023-03-24T16:23:15.321Z,11.13
2023-03-24T16:25:42.282Z,10.68
2023-03-24T16:28:16.240Z,11.73
2023-03-24T16:30:44.377Z,11.10
2023-03-24T16:33:12.682Z,10.02
2023-03-24T16:35:39.643Z,10.70
2023-03-24T16:38:06.971Z,10.20
2023-03-24T16:40:55.962Z,9.65
2023-03-24T16:43:23.037Z,10.13
2023-03-24T16:45:50.708Z,10.48
2023-03-24T16:48:18.160Z,10.07
2023-03-24T16:50:50.162Z,10.60
2023-03-24T16:53:18.052Z,11.55
2023-03-24T16:55:46.907Z,11.13
2023-03-24T16:58:16.444Z,9.10
2023-03-24T17:00:45.906Z,7.00
2023-03-24T17:03:14.203Z,5.10
2023-03-24T17:05:50.678Z,4.00
2023-03-24T17:08:19.143Z,4.47
2023-03-24T17:10:48.729Z,3.78
2023-03-24T17:13:26.035Z,3.38
2023-03-24T17:15:53.448Z,2.92
2023-03-24T17:18:20.607Z,3.40
2023-03-24T17:20:48.285Z,3.03
2023-03-24T17:23:18.696Z,2.70
2023-03-24T17:25:45.955Z,2.78
2023-03-24T17:28:19.051Z,2.15
2023-03-24T17:33:14.893Z,2.10
2023-03-24T17:35:44.813Z,2.10
2023-03-24T17:38:14.884Z,1.70
2023-03-24T17:40:42.310Z,2.47
2023-03-24T17:43:09.156Z,1.85
2023-03-24T17:45:35.977Z,1.90
2023-03-24T17:48:02.783Z,2.22
2023-03-24T17:50:30.870Z,1.48
2023-03-24T17:52:57.825Z,1.98
2023-03-24T17:55:24.684Z,1.50
2023-03-24T17:57:51.403Z,1.77
2023-03-24T18:00:18.475Z,2.38
2023-03-24T18:02:45.354Z,1.90
2023-03-24T18:05:12.897Z,1.80
2023-03-24T18:07:40.349Z,1.70
2023-03-24T18:10:08.427Z,2.08
2023-03-24T18:12:37.124Z,1.67
2023-03-24T18:15:04.940Z,1.60
2023-03-24T18:17:31.845Z,1.38
2023-03-24T18:20:00.830Z,1.83
2023-03-24T18:22:27.741Z,1.65
2023-03-24T18:24:54.737Z,1.80
2023-03-24T18:27:21.596Z,1.33
2023-03-24T18:29:48.344Z,1.40
2023-03-24T18:32:15.267Z,1.70
2023-03-24T18:34:44.772Z,1.00
2023-03-24T18:37:14.106Z,1.60
2023-03-24T18:39:40.987Z,1.73
2023-03-24T18:42:08.138Z,1.48
2023-03-24T18:44:34.974Z,1.02
2023-03-24T18:47:01.808Z,1.40
2023-03-24T18:49:28.805Z,0.88
2023-03-24T18:51:55.580Z,1.00
2023-03-24T18:54:22.399Z,1.45
2023-03-24T18:56:49.267Z,0.98
2023-03-24T18:59:16.245Z,0.77
2023-03-24T19:01:48.677Z,1.17
2023-03-24T19:04:17.292Z,0.98
2023-03-24T19:06:50.396Z,1.05
2023-03-24T19:11:48.258Z,0.98
2023-03-24T19:14:15.106Z,0.80
2023-03-24T19:16:42.194Z,1.02
2023-03-24T19:19:10.027Z,1.30
2023-03-24T19:21:36.863Z,0.70
2023-03-24T19:24:03.716Z,0.90
2023-03-24T19:26:30.514Z,1.10
2023-03-24T19:28:57.725Z,1.40
2023-03-24T19:31:24.544Z,1.20
2023-03-24T19:33:52.407Z,1.40
2023-03-24T19:36:19.919Z,1.70
2023-03-24T19:38:46.722Z,1.38
2023-03-24T19:41:14.909Z,1.63
2023-03-24T19:43:42.500Z,1.50
2023-03-24T19:46:09.595Z,1.73
2023-03-24T19:48:36.573Z,1.90
2023-03-24T19:51:03.585Z,1.70
2023-03-24T19:53:30.695Z,1.60
2023-03-24T19:55:59.772Z,1.30
2023-03-24T19:58:26.788Z,1.45
2023-03-24T20:00:54.039Z,1.88
2023-03-24T20:03:21.532Z,1.60
2023-03-24T20:05:49.203Z,2.22
2023-03-24T20:08:19.747Z,1.50
2023-03-24T20:10:46.989Z,1.15
2023-03-24T20:13:13.729Z,1.40
2023-03-24T20:15:41.055Z,1.30
2023-03-24T20:18:10.159Z,1.67
2023-03-24T20:20:36.968Z,1.55
2023-03-24T20:23:03.899Z,1.55
2023-03-24T20:25:30.841Z,1.83
2023-03-24T20:27:57.566Z,1.77
2023-03-24T20:30:26.260Z,1.83
2023-03-24T20:32:56.832Z,1.90
2023-03-24T20:35:24.090Z,2.58
2023-03-24T20:37:50.970Z,2.35
2023-03-24T20:40:18.102Z,2.20
2023-03-24T20:42:44.986Z,2.08
2023-03-24T20:45:12.894Z,2.30
2023-03-24T20:47:39.816Z,2.40
2023-03-24T20:50:07.321Z,1.77
2023-03-24T20:52:35.106Z,1.83
2023-03-24T20:55:06.448Z,1.52
2023-03-24T20:57:34.454Z,1.95
2023-03-24T21:00:02.253Z,1.77
2023-03-24T21:02:31.801Z,1.80
2023-03-24T21:04:59.422Z,2.50
2023-03-24T21:07:27.113Z,2.65
2023-03-24T21:09:53.934Z,2.67
2023-03-24T21:12:21.875Z,2.50
2023-03-24T21:14:49.531Z,2.80
2023-03-24T21:17:18.789Z,2.78
2023-03-24T21:19:46.976Z,2.85
2023-03-24T21:22:15.866Z,3.40
2023-03-24T21:24:42.694Z,3.50
2023-03-24T21:27:09.527Z,3.67
2023-03-24T21:29:36.767Z,7.38
2023-03-24T21:32:03.626Z,4.30
2023-03-24T21:34:30.599Z,4.25
2023-03-24T21:36:57.452Z,4.32
2023-03-24T21:39:24.356Z,5.07
2023-03-24T21:41:52.410Z,4.20
2023-03-24T21:44:19.817Z,4.05
2023-03-24T21:46:48.093Z,3.78
2023-03-24T21:49:18.949Z,3.45
2023-03-24T21:51:47.942Z,3.90
2023-03-24T21:54:21.245Z,3.10
2023-03-24T21:56:48.050Z,3.60
2023-03-24T21:59:14.916Z,4.35
2023-03-24T22:01:43.010Z,3.28
2023-03-24T22:04:11.130Z,3.65
2023-03-24T22:06:39.655Z,3.33
2023-03-24T22:09:07.405Z,4.38
2023-03-24T22:11:35.638Z,3.70
2023-03-24T22:14:04.082Z,3.88
2023-03-24T22:16:31.212Z,3.70
2023-03-24T22:18:58.909Z,3.85
2023-03-24T22:21:26.142Z,3.30
2023-03-24T22:23:52.929Z,4.55
2023-03-24T22:26:19.698Z,4.70
2023-03-24T22:28:46.507Z,4.18
2023-03-24T22:31:16.486Z,4.63
2023-03-24T22:33:44.299Z,4.63
2023-03-24T22:36:11.766Z,4.65
2023-03-24T22:38:39.058Z,4.40
2023-03-24T22:41:09.474Z,4.25
2023-03-24T22:43:39.471Z,3.80
2023-03-24T22:46:06.734Z,3.25
2023-03-24T22:48:33.613Z,3.45
2023-03-24T22:51:00.664Z,3.88
2023-03-24T22:53:27.356Z,3.25
2023-03-24T22:55:54.550Z,3.80
2023-03-24T22:58:21.441Z,3.55
2023-03-24T23:00:54.261Z,3.97
2023-03-24T23:03:21.294Z,3.05
2023-03-24T23:05:48.825Z,4.78
2023-03-24T23:08:16.933Z,3.55
2023-03-24T23:10:45.444Z,3.08
2023-03-24T23:13:12.761Z,2.50
2023-03-24T23:15:47.896Z,2.85
2023-03-24T23:18:15.754Z,2.97
2023-03-24T23:20:42.936Z,2.00
2023-03-24T23:23:10.390Z,2.03
2023-03-24T23:25:45.376Z,1.90
2023-03-24T23:28:13.461Z,1.30
2023-03-24T23:30:41.360Z,1.27
2023-03-24T23:33:08.943Z,1.10
2023-03-24T23:35:37.849Z,0.98
2023-03-24T23:38:06.802Z,1.10
2023-03-24T23:40:34.073Z,1.13
2023-03-24T23:43:02.105Z,0.80
2023-03-24T23:45:29.013Z,0.80
2023-03-24T23:47:56.331Z,0.85
2023-03-24T23:50:23.648Z,1.17
2023-03-24T23:52:53.280Z,1.13
2023-03-24T23:55:22.037Z,0.70
2023-03-24T23:57:54.894Z,1.13
